sensor_id;sensor_type;location;lat;lon;timestamp;P1;durP1;ratioP1;P2;durP2;ratioP2
50231;SDS011;36118;56.468;84.952;2023-03-23T00:03:13;20.90;;;8.07;;
50231;SDS011;36118;56.468;84.952;2023-03-23T00:08:18;25.55;;;8.32;;
50231;SDS011;36118;56.468;84.952;2023-03-23T00:13:24;16.65;;;7.05;;
50231;SDS011;36118;56.468;84.952;2023-03-23T00:18:25;23.58;;;8.13;;
50231;SDS011;36118;56.468;84.952;2023-03-23T00:23:27;21.45;;;8.50;;
50231;SDS011;36118;56.468;84.952;2023-03-23T00:28:29;25.42;;;7.63;;
50231;SDS011;36118;56.468;84.952;2023-03-23T00:33:31;21.23;;;7.53;;
50231;SDS011;36118;56.468;84.952;2023-03-23T00:38:42;20.55;;;7.40;;
50231;SDS011;36118;56.468;84.952;2023-03-23T00:43:44;19.10;;;6.82;;
50231;SDS011;36118;56.468;84.952;2023-03-23T00:48:46;20.48;;;7.47;;
50231;SDS011;36118;56.468;84.952;2023-03-23T00:53:48;22.77;;;8.05;;
50231;SDS011;36118;56.468;84.952;2023-03-23T00:58:50;21.38;;;6.90;;
50231;SDS011;36118;56.468;84.952;2023-03-23T01:03:51;19.95;;;7.90;;
50231;SDS011;36118;56.468;84.952;2023-03-23T01:09:01;23.02;;;6.70;;
50231;SDS011;36118;56.468;84.952;2023-03-23T01:14:04;18.88;;;6.18;;
50231;SDS011;36118;56.468;84.952;2023-03-23T01:19:05;19.90;;;6.65;;
50231;SDS011;36118;56.468;84.952;2023-03-23T01:24:07;19.55;;;6.35;;
50231;SDS011;36118;56.468;84.952;2023-03-23T01:29:09;20.08;;;6.20;;
50231;SDS011;36118;56.468;84.952;2023-03-23T01:34:11;23.75;;;6.63;;
50231;SDS011;36118;56.468;84.952;2023-03-23T01:39:13;25.80;;;6.72;;
50231;SDS011;36118;56.468;84.952;2023-03-23T01:49:30;22.23;;;6.18;;
50231;SDS011;36118;56.468;84.952;2023-03-23T01:54:34;24.85;;;7.82;;
50231;SDS011;36118;56.468;84.952;2023-03-23T01:59:38;18.47;;;5.53;;
50231;SDS011;36118;56.468;84.952;2023-03-23T02:04:55;17.52;;;6.05;;
50231;SDS011;36118;56.468;84.952;2023-03-23T02:10:00;15.85;;;5.90;;
50231;SDS011;36118;56.468;84.952;2023-03-23T02:15:05;14.70;;;6.32;;
50231;SDS011;36118;56.468;84.952;2023-03-23T02:41:15;15.23;;;4.32;;
50231;SDS011;36118;56.468;84.952;2023-03-23T02:46:18;20.85;;;5.60;;
50231;SDS011;36118;56.468;84.952;2023-03-23T02:51:21;19.15;;;4.53;;
50231;SDS011;36118;56.468;84.952;2023-03-23T02:56:24;13.00;;;4.63;;
50231;SDS011;36118;56.468;84.952;2023-03-23T03:06:38;15.18;;;4.68;;
50231;SDS011;36118;56.468;84.952;2023-03-23T03:12:14;14.73;;;5.43;;
50231;SDS011;36118;56.468;84.952;2023-03-23T03:17:23;18.52;;;4.88;;
50231;SDS011;36118;56.468;84.952;2023-03-23T03:22:26;17.38;;;5.63;;
50231;SDS011;36118;56.468;84.952;2023-03-23T03:27:31;13.32;;;5.50;;
50231;SDS011;36118;56.468;84.952;2023-03-23T03:32:48;14.70;;;5.50;;
50231;SDS011;36118;56.468;84.952;2023-03-23T03:37:52;12.93;;;4.60;;
50231;SDS011;36118;56.468;84.952;2023-03-23T03:42:54;17.00;;;6.03;;
50231;SDS011;36118;56.468;84.952;2023-03-23T03:47:56;14.35;;;5.57;;
50231;SDS011;36118;56.468;84.952;2023-03-23T03:52:58;20.80;;;5.63;;
50231;SDS011;36118;56.468;84.952;2023-03-23T03:58:00;17.67;;;5.18;;
50231;SDS011;36118;56.468;84.952;2023-03-23T04:03:29;14.55;;;5.22;;
50231;SDS011;36118;56.468;84.952;2023-03-23T04:08:45;20.80;;;6.25;;
50231;SDS011;36118;56.468;84.952;2023-03-23T04:13:47;13.00;;;5.20;;
50231;SDS011;36118;56.468;84.952;2023-03-23T04:18:55;12.75;;;5.45;;
50231;SDS011;36118;56.468;84.952;2023-03-23T04:23:59;17.45;;;5.95;;
50231;SDS011;36118;56.468;84.952;2023-03-23T04:29:02;16.33;;;5.63;;
50231;SDS011;36118;56.468;84.952;2023-03-23T04:34:04;19.00;;;6.20;;
50231;SDS011;36118;56.468;84.952;2023-03-23T04:39:12;20.15;;;7.05;;
50231;SDS011;36118;56.468;84.952;2023-03-23T04:44:14;18.75;;;5.45;;
50231;SDS011;36118;56.468;84.952;2023-03-23T04:49:45;15.27;;;5.68;;
50231;SDS011;36118;56.468;84.952;2023-03-23T04:55:08;20.50;;;6.70;;
50231;SDS011;36118;56.468;84.952;2023-03-23T05:00:13;16.77;;;5.60;;
50231;SDS011;36118;56.468;84.952;2023-03-23T05:05:24;17.08;;;6.15;;
50231;SDS011;36118;56.468;84.952;2023-03-23T05:10:28;14.77;;;5.53;;
50231;SDS011;36118;56.468;84.952;2023-03-23T05:15:37;14.98;;;5.32;;
50231;SDS011;36118;56.468;84.952;2023-03-23T05:20:40;13.82;;;5.30;;
50231;SDS011;36118;56.468;84.952;2023-03-23T05:25:55;17.80;;;5.57;;
50231;SDS011;36118;56.468;84.952;2023-03-23T05:30:58;14.98;;;5.15;;
50231;SDS011;36118;56.468;84.952;2023-03-23T05:36:05;12.85;;;5.90;;
50231;SDS011;36118;56.468;84.952;2023-03-23T05:41:31;17.08;;;5.88;;
50231;SDS011;36118;56.468;84.952;2023-03-23T05:46:35;14.82;;;5.15;;
50231;SDS011;36118;56.468;84.952;2023-03-23T05:51:37;16.48;;;4.90;;
50231;SDS011;36118;56.468;84.952;2023-03-23T05:56:38;12.25;;;4.53;;
50231;SDS011;36118;56.468;84.952;2023-03-23T06:01:56;10.73;;;4.75;;
50231;SDS011;36118;56.468;84.952;2023-03-23T06:07:01;13.52;;;4.25;;
50231;SDS011;36118;56.468;84.952;2023-03-23T06:12:03;12.82;;;4.82;;
50231;SDS011;36118;56.468;84.952;2023-03-23T06:17:18;11.73;;;4.78;;
50231;SDS011;36118;56.468;84.952;2023-03-23T06:22:24;16.42;;;5.43;;
50231;SDS011;36118;56.468;84.952;2023-03-23T06:27:46;11.90;;;4.18;;
50231;SDS011;36118;56.468;84.952;2023-03-23T06:32:47;9.32;;;4.40;;
50231;SDS011;36118;56.468;84.952;2023-03-23T06:43:08;17.27;;;5.43;;
50231;SDS011;36118;56.468;84.952;2023-03-23T06:48:13;14.23;;;4.47;;
50231;SDS011;36118;56.468;84.952;2023-03-23T06:53:15;18.92;;;4.45;;
50231;SDS011;36118;56.468;84.952;2023-03-23T06:58:20;13.65;;;4.18;;
50231;SDS011;36118;56.468;84.952;2023-03-23T07:03:22;13.68;;;5.35;;
50231;SDS011;36118;56.468;84.952;2023-03-23T07:08:24;9.60;;;4.22;;
50231;SDS011;36118;56.468;84.952;2023-03-23T07:13:26;9.55;;;4.32;;
50231;SDS011;36118;56.468;84.952;2023-03-23T07:18:34;9.80;;;4.43;;
50231;SDS011;36118;56.468;84.952;2023-03-23T07:23:38;11.65;;;4.25;;
50231;SDS011;36118;56.468;84.952;2023-03-23T07:28:44;10.07;;;4.03;;
50231;SDS011;36118;56.468;84.952;2023-03-23T07:34:09;16.50;;;4.55;;
50231;SDS011;36118;56.468;84.952;2023-03-23T07:39:20;11.20;;;4.47;;
50231;SDS011;36118;56.468;84.952;2023-03-23T07:44:26;12.75;;;4.32;;
50231;SDS011;36118;56.468;84.952;2023-03-23T07:49:28;7.88;;;3.95;;
50231;SDS011;36118;56.468;84.952;2023-03-23T07:54:43;9.30;;;4.57;;
50231;SDS011;36118;56.468;84.952;2023-03-23T08:00:01;10.30;;;4.38;;
50231;SDS011;36118;56.468;84.952;2023-03-23T08:05:19;12.35;;;3.75;;
50231;SDS011;36118;56.468;84.952;2023-03-23T08:10:50;9.27;;;3.85;;
50231;SDS011;36118;56.468;84.952;2023-03-23T08:16:18;11.32;;;3.67;;
50231;SDS011;36118;56.468;84.952;2023-03-23T08:26:44;8.18;;;3.78;;
50231;SDS011;36118;56.468;84.952;2023-03-23T08:31:58;11.25;;;3.97;;
50231;SDS011;36118;56.468;84.952;2023-03-23T08:37:14;8.90;;;3.85;;
50231;SDS011;36118;56.468;84.952;2023-03-23T08:42:38;10.90;;;3.75;;
50231;SDS011;36118;56.468;84.952;2023-03-23T08:48:10;14.38;;;4.30;;
50231;SDS011;36118;56.468;84.952;2023-03-23T08:53:38;11.40;;;3.72;;
50231;SDS011;36118;56.468;84.952;2023-03-23T08:58:48;8.25;;;3.83;;
50231;SDS011;36118;56.468;84.952;2023-03-23T09:04:09;12.25;;;3.72;;
50231;SDS011;36118;56.468;84.952;2023-03-23T09:09:41;8.73;;;3.85;;
50231;SDS011;36118;56.468;84.952;2023-03-23T09:14:53;10.63;;;3.60;;
50231;SDS011;36118;56.468;84.952;2023-03-23T09:19:55;11.50;;;4.20;;
50231;SDS011;36118;56.468;84.952;2023-03-23T09:24:56;11.32;;;3.67;;
50231;SDS011;36118;56.468;84.952;2023-03-23T09:29:58;7.70;;;3.67;;
50231;SDS011;36118;56.468;84.952;2023-03-23T09:34:59;8.07;;;3.40;;
50231;SDS011;36118;56.468;84.952;2023-03-23T09:40:02;9.07;;;3.28;;
50231;SDS011;36118;56.468;84.952;2023-03-23T09:45:07;9.82;;;3.47;;
50231;SDS011;36118;56.468;84.952;2023-03-23T09:50:15;8.52;;;3.28;;
50231;SDS011;36118;56.468;84.952;2023-03-23T09:55:19;15.27;;;3.45;;
50231;SDS011;36118;56.468;84.952;2023-03-23T10:00:26;7.32;;;3.10;;
50231;SDS011;36118;56.468;84.952;2023-03-23T10:05:33;7.65;;;3.33;;
50231;SDS011;36118;56.468;84.952;2023-03-23T10:10:41;8.10;;;3.08;;
50231;SDS011;36118;56.468;84.952;2023-03-23T10:15:58;11.07;;;3.05;;
50231;SDS011;36118;56.468;84.952;2023-03-23T10:21:00;11.80;;;2.83;;
50231;SDS011;36118;56.468;84.952;2023-03-23T10:26:08;7.88;;;2.70;;
50231;SDS011;36118;56.468;84.952;2023-03-23T10:31:21;5.97;;;2.63;;
50231;SDS011;36118;56.468;84.952;2023-03-23T10:41:29;6.40;;;2.80;;
50231;SDS011;36118;56.468;84.952;2023-03-23T10:51:53;6.78;;;2.58;;
50231;SDS011;36118;56.468;84.952;2023-03-23T10:57:00;7.55;;;2.63;;
50231;SDS011;36118;56.468;84.952;2023-03-23T11:02:02;8.65;;;2.60;;
50231;SDS011;36118;56.468;84.952;2023-03-23T11:07:19;8.80;;;2.25;;
50231;SDS011;36118;56.468;84.952;2023-03-23T11:12:22;6.38;;;2.53;;
50231;SDS011;36118;56.468;84.952;2023-03-23T11:17:25;7.25;;;2.67;;
50231;SDS011;36118;56.468;84.952;2023-03-23T11:22:28;7.32;;;2.30;;
50231;SDS011;36118;56.468;84.952;2023-03-23T11:27:32;8.68;;;2.88;;
50231;SDS011;36118;56.468;84.952;2023-03-23T11:32:34;9.73;;;2.40;;
50231;SDS011;36118;56.468;84.952;2023-03-23T11:37:41;13.45;;;2.53;;
50231;SDS011;36118;56.468;84.952;2023-03-23T11:58:47;14.30;;;2.40;;
50231;SDS011;36118;56.468;84.952;2023-03-23T12:08:58;9.07;;;2.72;;
50231;SDS011;36118;56.468;84.952;2023-03-23T12:41:08;13.23;;;3.40;;
50231;SDS011;36118;56.468;84.952;2023-03-23T12:46:51;7.47;;;3.10;;
50231;SDS011;36118;56.468;84.952;2023-03-23T12:52:14;11.18;;;3.97;;
50231;SDS011;36118;56.468;84.952;2023-03-23T12:57:27;11.15;;;3.90;;
50231;SDS011;36118;56.468;84.952;2023-03-23T13:02:44;11.98;;;3.45;;
50231;SDS011;36118;56.468;84.952;2023-03-23T13:08:02;9.82;;;3.72;;
50231;SDS011;36118;56.468;84.952;2023-03-23T13:13:18;15.25;;;3.45;;
50231;SDS011;36118;56.468;84.952;2023-03-23T13:19:06;14.65;;;3.95;;
50231;SDS011;36118;56.468;84.952;2023-03-23T13:24:12;14.02;;;4.25;;
50231;SDS011;36118;56.468;84.952;2023-03-23T13:29:19;12.52;;;4.20;;
50231;SDS011;36118;56.468;84.952;2023-03-23T13:34:25;9.52;;;3.67;;
50231;SDS011;36118;56.468;84.952;2023-03-23T13:39:35;16.58;;;4.65;;
50231;SDS011;36118;56.468;84.952;2023-03-23T13:49:56;22.75;;;4.75;;
50231;SDS011;36118;56.468;84.952;2023-03-23T14:00:49;17.80;;;4.87;;
50231;SDS011;36118;56.468;84.952;2023-03-23T14:06:06;15.95;;;4.38;;
50231;SDS011;36118;56.468;84.952;2023-03-23T14:11:50;13.63;;;4.53;;
50231;SDS011;36118;56.468;84.952;2023-03-23T14:17:06;15.00;;;4.60;;
50231;SDS011;36118;56.468;84.952;2023-03-23T14:22:19;20.83;;;5.00;;
50231;SDS011;36118;56.468;84.952;2023-03-23T14:27:47;14.63;;;5.60;;
50231;SDS011;36118;56.468;84.952;2023-03-23T14:32:48;10.98;;;4.65;;
50231;SDS011;36118;56.468;84.952;2023-03-23T14:37:53;10.73;;;4.25;;
50231;SDS011;36118;56.468;84.952;2023-03-23T14:42:55;19.77;;;5.38;;
50231;SDS011;36118;56.468;84.952;2023-03-23T14:47:57;18.42;;;5.90;;
50231;SDS011;36118;56.468;84.952;2023-03-23T14:53:02;16.85;;;6.32;;
50231;SDS011;36118;56.468;84.952;2023-03-23T14:58:12;10.75;;;4.43;;
50231;SDS011;36118;56.468;84.952;2023-03-23T15:03:16;14.77;;;4.40;;
50231;SDS011;36118;56.468;84.952;2023-03-23T15:08:20;18.77;;;4.68;;
50231;SDS011;36118;56.468;84.952;2023-03-23T15:13:31;10.15;;;2.70;;
50231;SDS011;36118;56.468;84.952;2023-03-23T15:18:37;7.63;;;2.55;;
50231;SDS011;36118;56.468;84.952;2023-03-23T15:23:43;7.68;;;2.47;;
50231;SDS011;36118;56.468;84.952;2023-03-23T15:28:44;8.40;;;3.05;;
50231;SDS011;36118;56.468;84.952;2023-03-23T15:33:46;8.50;;;3.55;;
50231;SDS011;36118;56.468;84.952;2023-03-23T15:38:49;17.30;;;7.43;;
50231;SDS011;36118;56.468;84.952;2023-03-23T15:43:52;10.32;;;4.30;;
50231;SDS011;36118;56.468;84.952;2023-03-23T15:53:59;8.52;;;4.60;;
50231;SDS011;36118;56.468;84.952;2023-03-23T15:59:02;17.80;;;8.52;;
50231;SDS011;36118;56.468;84.952;2023-03-23T16:04:06;12.50;;;6.20;;
50231;SDS011;36118;56.468;84.952;2023-03-23T16:09:15;10.55;;;5.38;;
50231;SDS011;36118;56.468;84.952;2023-03-23T16:14:19;10.63;;;4.80;;
50231;SDS011;36118;56.468;84.952;2023-03-23T16:19:22;11.15;;;5.22;;
50231;SDS011;36118;56.468;84.952;2023-03-23T16:24:25;13.10;;;5.20;;
50231;SDS011;36118;56.468;84.952;2023-03-23T16:29:28;11.40;;;4.90;;
50231;SDS011;36118;56.468;84.952;2023-03-23T16:34:35;10.25;;;5.05;;
50231;SDS011;36118;56.468;84.952;2023-03-23T16:39:38;11.70;;;5.03;;
50231;SDS011;36118;56.468;84.952;2023-03-23T16:44:40;12.52;;;5.10;;
50231;SDS011;36118;56.468;84.952;2023-03-23T16:49:43;9.55;;;4.85;;
50231;SDS011;36118;56.468;84.952;2023-03-23T16:54:46;9.40;;;5.28;;
50231;SDS011;36118;56.468;84.952;2023-03-23T16:59:49;12.02;;;5.00;;
50231;SDS011;36118;56.468;84.952;2023-03-23T17:04:52;9.15;;;4.53;;
50231;SDS011;36118;56.468;84.952;2023-03-23T17:09:55;8.82;;;5.35;;
50231;SDS011;36118;56.468;84.952;2023-03-23T17:14:58;9.40;;;5.10;;
50231;SDS011;36118;56.468;84.952;2023-03-23T17:20:00;11.43;;;5.43;;
50231;SDS011;36118;56.468;84.952;2023-03-23T17:25:03;9.50;;;4.88;;
50231;SDS011;36118;56.468;84.952;2023-03-23T17:30:08;12.32;;;5.75;;
50231;SDS011;36118;56.468;84.952;2023-03-23T17:35:12;14.90;;;5.30;;
50231;SDS011;36118;56.468;84.952;2023-03-23T17:40:14;9.93;;;4.45;;
50231;SDS011;36118;56.468;84.952;2023-03-23T17:45:17;8.27;;;4.82;;
50231;SDS011;36118;56.468;84.952;2023-03-23T17:50:20;9.48;;;4.72;;
50231;SDS011;36118;56.468;84.952;2023-03-23T17:55:23;10.23;;;5.28;;
50231;SDS011;36118;56.468;84.952;2023-03-23T18:00:38;9.55;;;4.78;;
50231;SDS011;36118;56.468;84.952;2023-03-23T18:05:41;9.25;;;5.15;;
50231;SDS011;36118;56.468;84.952;2023-03-23T18:10:45;13.10;;;4.78;;
50231;SDS011;36118;56.468;84.952;2023-03-23T18:15:48;7.45;;;4.28;;
50231;SDS011;36118;56.468;84.952;2023-03-23T18:20:55;9.95;;;5.25;;
50231;SDS011;36118;56.468;84.952;2023-03-23T18:26:06;9.50;;;4.38;;
50231;SDS011;36118;56.468;84.952;2023-03-23T18:31:14;9.23;;;4.55;;
50231;SDS011;36118;56.468;84.952;2023-03-23T18:36:19;9.65;;;4.57;;
50231;SDS011;36118;56.468;84.952;2023-03-23T18:41:24;9.77;;;4.72;;
50231;SDS011;36118;56.468;84.952;2023-03-23T18:46:27;9.95;;;4.65;;
50231;SDS011;36118;56.468;84.952;2023-03-23T18:51:30;8.35;;;4.50;;
50231;SDS011;36118;56.468;84.952;2023-03-23T18:56:32;8.90;;;4.88;;
50231;SDS011;36118;56.468;84.952;2023-03-23T19:01:35;8.77;;;4.57;;
50231;SDS011;36118;56.468;84.952;2023-03-23T19:06:38;9.25;;;5.20;;
50231;SDS011;36118;56.468;84.952;2023-03-23T19:11:41;11.07;;;4.82;;
50231;SDS011;36118;56.468;84.952;2023-03-23T19:16:44;8.88;;;4.95;;
50231;SDS011;36118;56.468;84.952;2023-03-23T19:21:47;14.10;;;5.68;;
50231;SDS011;36118;56.468;84.952;2023-03-23T19:26:50;9.88;;;5.75;;
50231;SDS011;36118;56.468;84.952;2023-03-23T19:31:53;10.27;;;5.53;;
50231;SDS011;36118;56.468;84.952;2023-03-23T19:36:56;14.30;;;5.75;;
50231;SDS011;36118;56.468;84.952;2023-03-23T19:42:06;7.80;;;4.60;;
50231;SDS011;36118;56.468;84.952;2023-03-23T19:47:09;8.90;;;4.47;;
50231;SDS011;36118;56.468;84.952;2023-03-23T19:52:12;14.10;;;4.88;;
50231;SDS011;36118;56.468;84.952;2023-03-23T19:57:18;9.75;;;4.32;;
50231;SDS011;36118;56.468;84.952;2023-03-23T20:02:22;9.18;;;4.90;;
50231;SDS011;36118;56.468;84.952;2023-03-23T20:07:25;7.60;;;3.97;;
50231;SDS011;36118;56.468;84.952;2023-03-23T20:12:28;8.48;;;4.07;;
50231;SDS011;36118;56.468;84.952;2023-03-23T20:17:31;9.65;;;4.72;;
50231;SDS011;36118;56.468;84.952;2023-03-23T20:22:34;8.27;;;4.40;;
50231;SDS011;36118;56.468;84.952;2023-03-23T20:27:37;9.80;;;4.72;;
50231;SDS011;36118;56.468;84.952;2023-03-23T20:32:41;9.63;;;5.63;;
50231;SDS011;36118;56.468;84.952;2023-03-23T20:37:47;10.63;;;5.35;;
50231;SDS011;36118;56.468;84.952;2023-03-23T20:42:51;12.50;;;5.70;;
50231;SDS011;36118;56.468;84.952;2023-03-23T20:47:55;10.88;;;5.07;;
50231;SDS011;36118;56.468;84.952;2023-03-23T20:53:08;11.18;;;6.03;;
50231;SDS011;36118;56.468;84.952;2023-03-23T20:58:11;10.30;;;5.15;;
50231;SDS011;36118;56.468;84.952;2023-03-23T21:03:15;11.90;;;6.13;;
50231;SDS011;36118;56.468;84.952;2023-03-23T21:08:18;11.65;;;5.95;;
50231;SDS011;36118;56.468;84.952;2023-03-23T21:13:21;11.85;;;6.40;;
50231;SDS011;36118;56.468;84.952;2023-03-23T21:18:24;15.32;;;6.03;;
50231;SDS011;36118;56.468;84.952;2023-03-23T21:23:27;9.75;;;4.22;;
50231;SDS011;36118;56.468;84.952;2023-03-23T21:28:31;12.13;;;5.30;;
50231;SDS011;36118;56.468;84.952;2023-03-23T21:33:38;9.05;;;4.72;;
50231;SDS011;36118;56.468;84.952;2023-03-23T21:38:40;9.88;;;5.03;;
50231;SDS011;36118;56.468;84.952;2023-03-23T21:43:43;9.13;;;5.30;;
50231;SDS011;36118;56.468;84.952;2023-03-23T21:48:48;12.43;;;5.20;;
50231;SDS011;36118;56.468;84.952;2023-03-23T21:53:54;12.52;;;6.22;;
50231;SDS011;36118;56.468;84.952;2023-03-23T21:58:57;10.82;;;5.55;;
50231;SDS011;36118;56.468;84.952;2023-03-23T22:04:02;10.10;;;6.68;;
50231;SDS011;36118;56.468;84.952;2023-03-23T22:09:05;9.73;;;5.90;;
50231;SDS011;36118;56.468;84.952;2023-03-23T22:14:08;11.45;;;6.32;;
50231;SDS011;36118;56.468;84.952;2023-03-23T22:19:11;13.30;;;6.70;;
50231;SDS011;36118;56.468;84.952;2023-03-23T22:24:15;10.25;;;5.68;;
50231;SDS011;36118;56.468;84.952;2023-03-23T22:29:18;12.15;;;6.20;;
50231;SDS011;36118;56.468;84.952;2023-03-23T22:34:21;11.00;;;5.80;;
50231;SDS011;36118;56.468;84.952;2023-03-23T22:39:23;9.75;;;6.38;;
50231;SDS011;36118;56.468;84.952;2023-03-23T22:44:27;12.73;;;6.35;;
50231;SDS011;36118;56.468;84.952;2023-03-23T22:49:29;13.20;;;5.97;;
50231;SDS011;36118;56.468;84.952;2023-03-23T22:54:36;10.68;;;6.22;;
50231;SDS011;36118;56.468;84.952;2023-03-23T22:59:48;10.43;;;5.85;;
50231;SDS011;36118;56.468;84.952;2023-03-23T23:04:51;12.90;;;6.47;;
50231;SDS011;36118;56.468;84.952;2023-03-23T23:09:54;11.90;;;5.90;;
50231;SDS011;36118;56.468;84.952;2023-03-23T23:14:57;11.05;;;5.88;;
50231;SDS011;36118;56.468;84.952;2023-03-23T23:20:00;11.90;;;6.13;;
50231;SDS011;36118;56.468;84.952;2023-03-23T23:25:06;12.55;;;6.53;;
50231;SDS011;36118;56.468;84.952;2023-03-23T23:30:10;9.85;;;5.70;;
50231;SDS011;36118;56.468;84.952;2023-03-23T23:35:13;14.32;;;6.53;;
50231;SDS011;36118;56.468;84.952;2023-03-23T23:40:17;11.02;;;6.68;;
50231;SDS011;36118;56.468;84.952;2023-03-23T23:45:21;11.87;;;7.20;;
50231;SDS011;36118;56.468;84.952;2023-03-23T23:50:24;14.88;;;7.57;;
50231;SDS011;36118;56.468;84.952;2023-03-23T23:55:27;13.57;;;9.15;;
